Time;durP1;ratioP1;P1;durP2;ratioP2;P2;SDS_P1;SDS_P2;PMS_P1;PMS_P2;Temp;Humidity;BMP_temperature;BMP_pressure;BME280_temperature;BME280_humidity;BME280_pressure;Samples;Min_cycle;Max_cycle;Signal;HPM_P1;HPM_P2
2021/01/10 00:01:15;;;;;;;27.58;11.88;;;4.70;55.90;;;;;;7668000;23;20061;-73
2021/01/10 00:04:16;;;;;;;30.13;11.95;;;4.80;56.00;;;;;;7694060;23;20293;-73
2021/01/10 00:07:25;;;;;;;25.35;10.73;;;4.80;55.90;;;;;;7714641;23;20312;-73
2021/01/10 00:10:27;;;;;;;36.80;12.65;;;4.90;55.90;;;;;;7714329;23;20012;-74
2021/01/10 00:13:28;;;;;;;38.53;12.93;;;4.90;55.80;;;;;;7713017;23;20024;-73
2021/01/10 00:16:28;;;;;;;34.50;12.77;;;4.90;55.90;;;;;;7687712;23;20012;-73
2021/01/10 00:19:29;;;;;;;26.33;11.07;;;5.00;55.90;;;;;;7688619;23;20335;-73
2021/01/10 00:22:30;;;;;;;26.52;10.80;;;5.00;55.90;;;;;;7688138;23;20087;-73
2021/01/10 00:25:31;;;;;;;34.38;13.57;;;5.00;55.90;;;;;;7688577;23;20430;-73
2021/01/10 00:28:32;;;;;;;28.92;12.07;;;5.00;55.80;;;;;;7663070;23;20028;-73
2021/01/10 00:31:34;;;;;;;30.75;11.70;;;5.00;55.80;;;;;;7687940;23;20017;-73
2021/01/10 00:34:35;;;;;;;31.35;10.93;;;5.00;55.80;;;;;;7686509;23;20020;-72
2021/01/10 00:37:36;;;;;;;35.35;12.50;;;5.00;55.80;;;;;;7688017;23;20031;-73
2021/01/10 00:40:37;;;;;;;27.75;12.32;;;5.00;55.90;;;;;;7714049;23;20016;-73
2021/01/10 00:43:38;;;;;;;30.00;11.75;;;5.00;56.00;;;;;;7687713;23;20020;-74
2021/01/10 00:46:40;;;;;;;27.67;11.52;;;5.00;56.00;;;;;;7687784;23;20023;-73
2021/01/10 00:49:42;;;;;;;26.85;10.90;;;5.00;56.10;;;;;;7678637;23;20028;-72
2021/01/10 00:52:43;;;;;;;30.25;11.48;;;5.00;56.00;;;;;;7680360;23;20333;-72
2021/01/10 00:55:46;;;;;;;27.00;10.40;;;5.00;55.90;;;;;;7651721;23;20459;-72
2021/01/10 00:58:47;;;;;;;30.63;11.48;;;5.00;55.80;;;;;;7689302;23;20012;-73
2021/01/10 01:01:48;;;;;;;27.50;10.05;;;5.00;55.80;;;;;;7629159;23;20032;-73
2021/01/10 01:04:49;;;;;;;22.00;9.75;;;5.00;55.80;;;;;;7690086;23;20023;-73
2021/01/10 01:07:51;;;;;;;29.48;11.52;;;5.00;55.70;;;;;;7681040;23;20017;-74
2021/01/10 01:10:57;;;;;;;34.33;12.30;;;5.00;55.60;;;;;;7689160;23;20025;-73
2021/01/10 01:13:58;;;;;;;26.42;11.27;;;5.00;55.60;;;;;;7688714;23;20059;-73
2021/01/10 01:16:59;;;;;;;26.48;10.27;;;5.00;55.50;;;;;;7714584;23;20087;-73
2021/01/10 01:20:00;;;;;;;25.75;10.57;;;5.00;55.40;;;;;;7714249;23;20442;-73
2021/01/10 01:23:04;;;;;;;33.08;11.02;;;5.10;55.40;;;;;;7663698;23;20060;-73
2021/01/10 01:26:05;;;;;;;25.90;10.00;;;5.10;55.20;;;;;;7689601;23;20033;-73
2021/01/10 01:29:06;;;;;;;30.08;11.30;;;5.10;55.10;;;;;;7689247;23;20020;-72
2021/01/10 01:32:07;;;;;;;28.50;9.68;;;5.10;55.00;;;;;;7664935;23;20432;-75
2021/01/10 01:35:08;;;;;;;25.63;10.55;;;5.10;55.10;;;;;;7689214;23;20052;-72
2021/01/10 01:38:09;;;;;;;31.40;11.88;;;5.10;54.70;;;;;;7689764;23;20020;-73
2021/01/10 01:41:11;;;;;;;28.98;10.88;;;5.10;54.70;;;;;;7702959;23;20020;-74
2021/01/10 01:44:11;;;;;;;31.73;12.55;;;5.10;54.70;;;;;;7665221;23;20028;-74
2021/01/10 01:47:18;;;;;;;28.33;11.88;;;5.10;54.80;;;;;;7690758;23;20017;-74
2021/01/10 01:50:19;;;;;;;34.72;12.57;;;5.20;54.80;;;;;;7663816;23;20047;-72
2021/01/10 01:53:20;;;;;;;30.65;12.60;;;5.20;54.70;;;;;;7652047;23;20480;-74
2021/01/10 01:56:21;;;;;;;24.80;10.43;;;5.20;54.60;;;;;;7689402;23;20009;-74
2021/01/10 01:59:22;;;;;;;25.30;12.00;;;5.30;54.50;;;;;;7652123;23;20012;-73
2021/01/10 02:02:23;;;;;;;38.75;12.75;;;5.30;54.40;;;;;;7689719;23;20169;-73
2021/01/10 02:05:28;;;;;;;28.35;11.52;;;5.30;54.40;;;;;;7714836;23;20013;-73
2021/01/10 02:08:33;;;;;;;29.77;12.55;;;5.30;54.30;;;;;;7689693;23;20013;-73
2021/01/10 02:11:36;;;;;;;29.05;11.30;;;5.30;54.20;;;;;;7689910;23;20020;-73
2021/01/10 02:14:49;;;;;;;26.75;11.05;;;5.30;54.30;;;;;;7689165;23;20062;-73
2021/01/10 02:17:52;;;;;;;30.13;11.48;;;5.30;54.30;;;;;;7653836;23;20327;-73
2021/01/10 02:20:54;;;;;;;27.13;11.27;;;5.40;54.30;;;;;;7662726;23;20025;-73
2021/01/10 02:24:03;;;;;;;29.13;11.57;;;5.40;54.30;;;;;;7680796;23;20087;-74
2021/01/10 02:27:05;;;;;;;28.50;11.85;;;5.40;54.20;;;;;;7656290;23;20316;-73
2021/01/10 02:30:11;;;;;;;29.83;11.18;;;5.40;54.10;;;;;;7689430;23;20048;-73
2021/01/10 02:33:35;;;;;;;34.70;11.68;;;5.50;54.20;;;;;;7690103;23;20282;-73
2021/01/10 02:36:39;;;;;;;29.05;10.90;;;5.50;54.10;;;;;;7678793;23;20084;-72
2021/01/10 02:40:05;;;;;;;36.50;11.93;;;5.60;54.10;;;;;;7689693;23;20012;-74
2021/01/10 02:43:21;;;;;;;27.15;10.23;;;5.50;53.90;;;;;;7690893;23;20017;-74
2021/01/10 02:46:25;;;;;;;25.88;11.18;;;5.50;53.80;;;;;;7678121;23;20017;-72
2021/01/10 02:49:26;;;;;;;25.23;10.98;;;5.50;53.80;;;;;;7658893;23;20021;-72
2021/01/10 02:52:27;;;;;;;44.33;11.93;;;5.50;53.80;;;;;;7715443;23;20020;-73
2021/01/10 02:55:28;;;;;;;22.08;10.20;;;5.40;53.80;;;;;;7689339;23;20024;-72
2021/01/10 02:58:29;;;;;;;28.48;10.38;;;5.50;53.80;;;;;;7715527;23;20024;-75
2021/01/10 03:01:31;;;;;;;33.92;11.13;;;5.60;53.80;;;;;;7689494;23;20016;-73
2021/01/10 03:04:33;;;;;;;25.63;10.27;;;5.60;53.70;;;;;;7689175;23;20294;-72
2021/01/10 03:07:35;;;;;;;26.58;10.95;;;5.60;53.60;;;;;;7714525;23;20027;-72
2021/01/10 03:10:37;;;;;;;30.20;11.60;;;5.60;53.60;;;;;;7688055;23;20017;-72
2021/01/10 03:13:38;;;;;;;27.70;9.45;;;5.60;53.60;;;;;;7713793;23;20098;-72
2021/01/10 03:16:39;;;;;;;29.05;12.25;;;5.70;53.60;;;;;;7687989;23;20021;-72
2021/01/10 03:19:40;;;;;;;31.92;11.90;;;5.70;53.70;;;;;;7714868;23;20096;-74
2021/01/10 03:22:42;;;;;;;23.33;10.05;;;5.70;53.70;;;;;;7689379;23;20479;-74
2021/01/10 03:25:43;;;;;;;27.73;10.85;;;5.70;53.90;;;;;;7689052;23;20020;-74
2021/01/10 03:28:46;;;;;;;34.60;12.57;;;5.70;54.00;;;;;;7688189;23;20090;-72
2021/01/10 03:31:46;;;;;;;31.13;10.93;;;5.70;54.10;;;;;;7687493;23;20012;-72
2021/01/10 03:34:47;;;;;;;28.05;11.27;;;5.70;54.10;;;;;;7714810;23;20020;-72
2021/01/10 03:37:48;;;;;;;29.60;11.60;;;5.70;54.00;;;;;;7715249;23;20027;-73
2021/01/10 03:40:49;;;;;;;31.27;12.35;;;5.60;53.90;;;;;;7689082;23;20012;-73
2021/01/10 03:43:50;;;;;;;27.27;11.77;;;5.60;54.00;;;;;;7715554;23;20024;-72
2021/01/10 03:46:52;;;;;;;24.77;11.70;;;5.60;54.10;;;;;;7715232;23;20103;-73
2021/01/10 03:49:53;;;;;;;33.15;11.73;;;5.50;54.20;;;;;;7688185;23;20039;-73
2021/01/10 03:52:54;;;;;;;35.83;13.63;;;5.50;54.20;;;;;;7689026;23;20412;-73
2021/01/10 03:55:55;;;;;;;31.42;11.88;;;5.50;54.20;;;;;;7689141;23;20020;-73
2021/01/10 03:58:56;;;;;;;30.98;12.63;;;5.60;54.30;;;;;;7714745;23;20012;-73
2021/01/10 04:01:57;;;;;;;29.13;11.60;;;5.60;54.30;;;;;;7689182;23;20475;-73
2021/01/10 04:04:58;;;;;;;37.90;12.80;;;5.60;54.40;;;;;;7688484;23;20083;-73
2021/01/10 04:07:59;;;;;;;27.98;12.57;;;5.60;54.40;;;;;;7687834;23;20016;-72
2021/01/10 04:11:00;;;;;;;30.05;11.40;;;5.60;54.40;;;;;;7714717;23;20031;-74
2021/01/10 04:14:01;;;;;;;27.77;11.55;;;5.50;54.30;;;;;;7714812;23;20063;-72
2021/01/10 04:17:02;;;;;;;23.80;10.98;;;5.50;54.30;;;;;;7715087;23;20012;-73
2021/01/10 04:20:03;;;;;;;25.95;11.25;;;5.50;54.20;;;;;;7714426;23;20020;-72
2021/01/10 04:23:04;;;;;;;28.65;11.13;;;5.40;54.10;;;;;;7714101;23;20016;-72
2021/01/10 04:26:05;;;;;;;36.50;12.65;;;5.40;54.10;;;;;;7686410;23;20071;-73
2021/01/10 04:29:06;;;;;;;36.97;13.73;;;5.30;54.30;;;;;;7688766;23;20096;-73
2021/01/10 04:32:07;;;;;;;27.45;11.75;;;5.30;54.40;;;;;;7713256;23;20013;-73
2021/01/10 04:35:08;;;;;;;24.83;10.02;;;5.30;54.60;;;;;;7691318;23;20319;-73
2021/01/10 04:38:09;;;;;;;27.65;11.18;;;5.30;54.60;;;;;;7691987;23;20079;-73
2021/01/10 04:41:15;;;;;;;33.65;11.18;;;5.30;54.60;;;;;;7689215;23;20020;-73
2021/01/10 04:44:16;;;;;;;27.65;12.15;;;5.40;54.70;;;;;;7713514;23;20047;-73
2021/01/10 04:47:17;;;;;;;27.73;11.68;;;5.40;54.70;;;;;;7687779;23;20319;-73
2021/01/10 04:50:19;;;;;;;31.73;12.50;;;5.40;54.70;;;;;;7618901;23;20044;-73
2021/01/10 04:53:21;;;;;;;26.17;10.63;;;5.40;54.60;;;;;;7675622;23;20017;-73
2021/01/10 04:56:27;;;;;;;31.92;13.55;;;5.40;54.60;;;;;;7614776;23;20064;-72
2021/01/10 04:59:29;;;;;;;29.65;12.05;;;5.40;54.60;;;;;;7673134;23;20017;-73
2021/01/10 05:02:34;;;;;;;28.90;11.38;;;5.40;54.50;;;;;;7650711;23;20043;-74
2021/01/10 05:05:37;;;;;;;28.83;10.85;;;5.40;54.40;;;;;;7676959;23;20420;-74
2021/01/10 05:08:39;;;;;;;23.55;10.30;;;5.40;54.50;;;;;;7636537;23;20428;-72
2021/01/10 05:11:41;;;;;;;28.05;12.52;;;5.30;54.50;;;;;;7624950;23;20356;-73
2021/01/10 05:14:42;;;;;;;33.88;11.25;;;5.30;54.50;;;;;;7624967;23;20373;-73
2021/01/10 05:17:57;;;;;;;28.90;11.40;;;5.40;54.60;;;;;;7651230;23;20021;-73
2021/01/10 05:20:58;;;;;;;32.42;12.60;;;5.40;54.70;;;;;;7650025;23;20025;-73
2021/01/10 05:24:00;;;;;;;27.58;12.35;;;5.40;54.70;;;;;;7676714;23;20092;-72
2021/01/10 05:27:01;;;;;;;25.67;10.20;;;5.40;54.80;;;;;;7651430;23;20071;-73
2021/01/10 05:30:02;;;;;;;28.33;10.85;;;5.40;54.80;;;;;;7676600;23;20016;-72
2021/01/10 05:33:07;;;;;;;27.73;11.82;;;5.40;54.90;;;;;;7676811;23;20071;-73
2021/01/10 05:36:08;;;;;;;29.50;12.05;;;5.30;55.00;;;;;;7650759;23;20595;-73
2021/01/10 05:39:19;;;;;;;26.52;12.07;;;5.30;55.10;;;;;;7674434;23;20512;-73
2021/01/10 05:42:27;;;;;;;28.13;12.63;;;5.30;55.10;;;;;;7625692;23;20036;-74
2021/01/10 05:45:35;;;;;;;36.85;13.63;;;5.30;55.20;;;;;;7651160;23;20009;-72
2021/01/10 05:48:42;;;;;;;24.60;11.55;;;5.30;55.30;;;;;;7677093;23;20021;-73
2021/01/10 05:51:43;;;;;;;39.67;13.48;;;5.30;55.30;;;;;;7688894;23;20024;-73
2021/01/10 05:54:45;;;;;;;36.05;12.50;;;5.30;55.40;;;;;;7690102;23;20020;-74
2021/01/10 05:57:46;;;;;;;28.60;10.90;;;5.30;55.50;;;;;;7689780;23;20328;-74
2021/01/10 06:00:50;;;;;;;26.92;10.68;;;5.30;55.50;;;;;;7665802;23;20025;-74
2021/01/10 06:03:51;;;;;;;25.10;10.88;;;5.30;55.60;;;;;;7717109;23;20037;-74
2021/01/10 06:06:52;;;;;;;36.42;12.85;;;5.30;55.60;;;;;;7664651;23;20474;-74
2021/01/10 06:09:54;;;;;;;27.27;11.45;;;5.30;55.60;;;;;;7690859;23;20092;-74
2021/01/10 06:13:01;;;;;;;29.52;9.35;;;5.30;55.60;;;;;;7694141;23;20301;-74
2021/01/10 06:16:05;;;;;;;29.98;12.02;;;5.30;55.70;;;;;;7650505;23;20152;-72
2021/01/10 06:19:08;;;;;;;19.30;9.30;;;5.30;55.60;;;;;;7655150;23;20008;-73
2021/01/10 06:22:17;;;;;;;29.02;11.82;;;5.30;55.60;;;;;;7692685;23;20032;-74
2021/01/10 06:25:32;;;;;;;31.40;11.07;;;5.30;55.50;;;;;;7717383;23;20040;-73
2021/01/10 06:28:37;;;;;;;24.25;9.40;;;5.30;55.50;;;;;;7679505;23;20023;-73
2021/01/10 06:31:42;;;;;;;26.23;10.57;;;5.30;55.40;;;;;;7679871;23;20116;-73
2021/01/10 06:34:45;;;;;;;46.50;11.45;;;5.20;55.30;;;;;;7653149;23;20079;-73
2021/01/10 06:37:47;;;;;;;28.77;11.35;;;5.20;55.30;;;;;;7677625;23;20100;-73
2021/01/10 06:41:13;;;;;;;38.10;11.95;;;5.30;55.20;;;;;;7652931;23;20086;-73
2021/01/10 06:44:19;;;;;;;28.40;10.75;;;5.20;55.10;;;;;;7653218;23;20021;-72
2021/01/10 06:47:22;;;;;;;25.10;10.23;;;5.20;55.10;;;;;;7652368;23;20352;-72
2021/01/10 06:50:23;;;;;;;21.40;9.65;;;5.20;55.00;;;;;;7715542;23;20050;-72
2021/01/10 06:53:24;;;;;;;25.35;10.23;;;5.20;55.10;;;;;;7715301;23;20392;-72
2021/01/10 06:56:25;;;;;;;22.45;9.45;;;5.10;54.90;;;;;;7689436;23;20409;-72
2021/01/10 06:59:26;;;;;;;23.50;9.68;;;5.10;54.90;;;;;;7689521;23;20107;-72
2021/01/10 07:02:27;;;;;;;27.55;10.43;;;5.10;54.80;;;;;;7652642;23;20316;-72
2021/01/10 07:06:11;;;;;;;28.10;11.18;;;5.10;54.90;;;;;;7716338;23;20012;-75
2021/01/10 07:09:12;;;;;;;22.60;10.20;;;5.10;54.90;;;;;;7682838;23;20021;-74
2021/01/10 07:12:20;;;;;;;26.92;9.77;;;5.10;54.90;;;;;;7652134;23;20013;-74
2021/01/10 07:15:22;;;;;;;19.85;8.18;;;5.10;54.80;;;;;;7678537;23;20072;-74
2021/01/10 07:18:24;;;;;;;22.70;10.02;;;5.10;54.70;;;;;;7650822;23;20105;-72
2021/01/10 07:21:31;;;;;;;23.08;9.52;;;5.10;54.70;;;;;;7677775;23;20013;-75
2021/01/10 07:24:32;;;;;;;29.35;10.50;;;5.20;54.50;;;;;;7678145;23;20009;-72
2021/01/10 07:27:34;;;;;;;24.75;8.77;;;5.20;54.40;;;;;;7651446;23;20027;-75
2021/01/10 07:30:36;;;;;;;20.08;9.05;;;5.20;54.40;;;;;;7652929;23;20413;-75
2021/01/10 07:33:39;;;;;;;28.17;9.30;;;5.20;55.00;;;;;;7678776;23;20016;-73
2021/01/10 07:36:46;;;;;;;24.60;10.15;;;5.20;54.40;;;;;;7688913;23;20013;-73
2021/01/10 07:39:55;;;;;;;23.55;10.02;;;5.30;54.40;;;;;;7721658;23;20096;-73
2021/01/10 07:43:01;;;;;;;20.10;9.52;;;5.30;54.30;;;;;;7688390;23;20460;-73
2021/01/10 07:46:06;;;;;;;19.25;9.82;;;5.30;54.30;;;;;;7700772;23;20048;-73
2021/01/10 07:49:07;;;;;;;20.13;9.07;;;5.30;54.20;;;;;;7674597;23;20428;-73
2021/01/10 07:52:08;;;;;;;20.20;9.00;;;5.30;54.10;;;;;;7695232;23;20017;-72
2021/01/10 07:55:17;;;;;;;22.15;9.70;;;5.40;54.10;;;;;;7692278;23;20048;-74
2021/01/10 07:58:20;;;;;;;23.52;9.63;;;5.40;54.00;;;;;;7691750;23;20036;-73
2021/01/10 08:01:20;;;;;;;23.33;10.25;;;5.40;54.00;;;;;;7666813;23;20017;-73
2021/01/10 08:04:35;;;;;;;26.50;10.18;;;5.40;54.00;;;;;;7691362;23;20023;-73
2021/01/10 08:07:45;;;;;;;22.75;9.68;;;5.40;54.00;;;;;;7714043;23;20012;-72
2021/01/10 08:10:49;;;;;;;26.67;9.52;;;5.40;54.10;;;;;;7691901;23;20021;-74
2021/01/10 08:13:50;;;;;;;20.58;8.93;;;5.40;54.10;;;;;;7691504;23;20021;-72
2021/01/10 08:16:51;;;;;;;27.60;9.30;;;5.40;54.10;;;;;;7718877;23;20023;-75
2021/01/10 08:19:52;;;;;;;22.17;9.30;;;5.30;54.00;;;;;;7691703;23;20021;-73
2021/01/10 08:23:08;;;;;;;27.60;11.18;;;5.40;54.00;;;;;;7716630;23;20420;-73
2021/01/10 08:26:12;;;;;;;23.50;10.93;;;5.40;54.00;;;;;;7678490;23;20017;-73
2021/01/10 08:29:14;;;;;;;34.08;10.80;;;5.50;54.10;;;;;;7652816;23;20479;-73
2021/01/10 08:32:16;;;;;;;28.00;10.25;;;5.50;54.00;;;;;;7668309;23;20028;-74
2021/01/10 08:35:21;;;;;;;35.05;12.18;;;5.50;53.90;;;;;;7679159;23;20021;-74
2021/01/10 08:38:22;;;;;;;29.65;10.52;;;5.50;53.80;;;;;;7678680;23;20021;-74
2021/01/10 08:41:26;;;;;;;29.92;9.43;;;5.50;53.70;;;;;;7677290;23;20044;-73
2021/01/10 08:44:27;;;;;;;25.52;10.20;;;5.50;53.70;;;;;;7677864;23;20323;-73
2021/01/10 08:47:28;;;;;;;21.05;9.65;;;5.50;53.60;;;;;;7679226;23;20013;-73
2021/01/10 08:50:40;;;;;;;26.98;9.35;;;5.50;53.60;;;;;;7702052;23;20013;-72
2021/01/10 08:53:42;;;;;;;25.83;10.60;;;5.60;53.50;;;;;;7714999;23;20028;-74
2021/01/10 08:56:45;;;;;;;42.90;10.18;;;5.60;53.50;;;;;;7689096;23;20104;-72
2021/01/10 08:59:46;;;;;;;21.25;9.10;;;5.70;53.40;;;;;;7688815;23;20308;-72
2021/01/10 09:02:47;;;;;;;20.55;9.70;;;5.70;53.40;;;;;;7689683;23;20091;-73
2021/01/10 09:05:52;;;;;;;26.40;9.88;;;5.70;53.20;;;;;;7689522;23;20024;-74
2021/01/10 09:09:07;;;;;;;20.90;9.60;;;5.80;53.20;;;;;;7689269;23;20032;-74
2021/01/10 09:12:08;;;;;;;25.27;10.23;;;5.80;53.10;;;;;;7689820;23;20107;-74
2021/01/10 09:15:18;;;;;;;22.95;10.27;;;5.90;53.60;;;;;;7689164;23;20078;-74
2021/01/10 09:18:20;;;;;;;20.55;9.07;;;5.90;52.80;;;;;;7652412;23;20072;-74
2021/01/10 09:21:26;;;;;;;19.92;8.32;;;5.90;52.50;;;;;;7688922;23;20021;-73
2021/01/10 09:24:32;;;;;;;29.50;10.57;;;5.90;52.50;;;;;;7677820;23;20024;-73
2021/01/10 09:27:34;;;;;;;19.83;9.27;;;5.90;52.10;;;;;;7680095;23;20103;-73
2021/01/10 09:30:39;;;;;;;25.27;9.40;;;5.90;51.90;;;;;;7689041;23;20084;-73
2021/01/10 09:33:40;;;;;;;24.20;9.75;;;5.90;51.70;;;;;;7687939;23;20075;-73
2021/01/10 09:36:42;;;;;;;31.60;11.38;;;5.90;51.70;;;;;;7687875;23;20009;-74
2021/01/10 09:39:44;;;;;;;26.30;10.23;;;6.00;51.80;;;;;;7680437;23;20424;-73
2021/01/10 09:42:48;;;;;;;25.10;10.02;;;6.00;51.70;;;;;;7680449;23;20293;-74
2021/01/10 09:45:51;;;;;;;24.48;9.35;;;6.00;51.80;;;;;;7653722;23;20017;-74
2021/01/10 09:48:55;;;;;;;19.88;9.25;;;6.00;51.70;;;;;;7654554;23;20431;-73
2021/01/10 09:52:06;;;;;;;21.60;9.30;;;6.00;51.50;;;;;;7653946;23;20405;-73
2021/01/10 09:55:07;;;;;;;22.73;8.65;;;6.10;51.50;;;;;;7653776;23;20016;-73
2021/01/10 09:58:14;;;;;;;22.75;10.05;;;6.10;51.30;;;;;;7654158;23;20017;-72
2021/01/10 10:01:16;;;;;;;24.53;8.80;;;6.10;51.20;;;;;;7654747;23;20013;-73
2021/01/10 10:04:29;;;;;;;22.38;10.35;;;6.10;51.10;;;;;;7680432;23;20040;-74
2021/01/10 10:07:40;;;;;;;24.45;10.65;;;6.10;51.30;;;;;;7691050;23;20016;-75
2021/01/10 10:10:41;;;;;;;23.67;9.95;;;6.20;51.30;;;;;;7679554;23;20013;-74
2021/01/10 10:13:42;;;;;;;29.20;9.85;;;6.20;51.20;;;;;;7654827;23;20068;-73
2021/01/10 10:16:43;;;;;;;22.38;9.63;;;6.30;51.20;;;;;;7679576;23;20425;-73
2021/01/10 10:19:44;;;;;;;30.10;10.95;;;6.30;51.00;;;;;;7653910;23;20345;-73
2021/01/10 10:22:46;;;;;;;20.85;9.85;;;6.40;51.00;;;;;;7627296;23;20013;-75
2021/01/10 10:25:50;;;;;;;17.92;9.10;;;6.40;51.50;;;;;;7654287;23;20017;-74
2021/01/10 10:28:50;;;;;;;26.10;10.15;;;6.40;51.00;;;;;;7652703;23;20406;-75
2021/01/10 10:31:51;;;;;;;29.25;10.48;;;6.40;50.90;;;;;;7680233;23;20017;-74
2021/01/10 10:34:53;;;;;;;26.52;10.70;;;6.40;50.90;;;;;;7646419;23;20025;-75
2021/01/10 10:37:54;;;;;;;20.45;9.55;;;6.50;50.80;;;;;;7716771;23;20016;-73
2021/01/10 10:40:55;;;;;;;23.58;10.82;;;6.50;50.90;;;;;;7666397;23;20458;-74
2021/01/10 10:43:56;;;;;;;22.98;10.43;;;6.50;50.90;;;;;;7666362;23;20009;-75
2021/01/10 10:46:57;;;;;;;26.77;10.38;;;6.60;51.00;;;;;;7691002;23;20012;-74
2021/01/10 10:49:58;;;;;;;28.17;10.38;;;6.60;50.90;;;;;;7690656;23;20020;-74
2021/01/10 10:52:59;;;;;;;23.48;10.20;;;6.60;50.90;;;;;;7690590;23;20351;-73
2021/01/10 10:56:00;;;;;;;25.92;11.38;;;6.60;50.90;;;;;;7690548;23;20043;-73
2021/01/10 10:59:02;;;;;;;37.78;12.05;;;6.60;51.00;;;;;;7689962;23;20021;-74
2021/01/10 11:02:03;;;;;;;31.35;12.57;;;6.70;51.10;;;;;;7690901;23;20028;-74
2021/01/10 11:05:05;;;;;;;31.35;11.38;;;6.70;51.00;;;;;;7690909;23;20364;-74
2021/01/10 11:08:06;;;;;;;21.38;9.60;;;6.70;51.00;;;;;;7690243;23;20021;-75
2021/01/10 11:11:07;;;;;;;26.00;11.20;;;6.70;50.90;;;;;;7690600;23;20498;-73
2021/01/10 11:14:09;;;;;;;28.77;10.85;;;6.80;50.90;;;;;;7690214;23;22592;-75
2021/01/10 11:17:11;;;;;;;23.63;10.20;;;6.80;50.80;;;;;;7690967;23;20020;-74
2021/01/10 11:20:12;;;;;;;29.73;12.95;;;6.80;50.80;;;;;;7665940;23;20017;-74
2021/01/10 11:23:13;;;;;;;30.08;12.18;;;6.80;50.80;;;;;;7689972;23;20104;-75
2021/01/10 11:26:14;;;;;;;26.83;11.43;;;6.80;50.80;;;;;;7690756;23;20088;-75
2021/01/10 11:29:16;;;;;;;31.05;11.43;;;6.90;50.80;;;;;;7664538;23;20336;-74
2021/01/10 11:32:17;;;;;;;27.08;10.23;;;6.90;50.80;;;;;;7690418;23;20074;-74
2021/01/10 11:35:18;;;;;;;32.50;11.73;;;6.90;50.60;;;;;;7688910;23;20067;-74
2021/01/10 11:38:18;;;;;;;39.30;11.98;;;6.90;50.60;;;;;;7689958;23;20091;-73
2021/01/10 11:41:20;;;;;;;23.83;11.52;;;7.00;50.50;;;;;;7689680;23;20032;-73
2021/01/10 11:44:23;;;;;;;33.60;13.57;;;7.00;50.60;;;;;;7716796;23;20013;-73
2021/01/10 11:47:26;;;;;;;36.25;12.98;;;6.90;50.50;;;;;;7716568;23;20013;-75
2021/01/10 11:50:27;;;;;;;30.48;12.73;;;7.00;50.60;;;;;;7716499;23;20027;-74
2021/01/10 11:53:29;;;;;;;27.00;11.15;;;6.80;50.60;;;;;;7691281;23;20013;-74
2021/01/10 11:56:30;;;;;;;31.23;13.32;;;7.00;50.70;;;;;;7717792;23;20028;-75
2021/01/10 11:59:31;;;;;;;28.67;13.02;;;7.00;50.60;;;;;;7691407;23;20008;-76
2021/01/10 12:02:32;;;;;;;30.85;13.40;;;7.00;50.60;;;;;;7691328;23;20344;-73
2021/01/10 12:05:33;;;;;;;31.23;11.23;;;7.10;50.50;;;;;;7690204;23;20020;-73
2021/01/10 12:08:34;;;;;;;25.20;10.65;;;7.10;50.40;;;;;;7689759;23;20016;-75
2021/01/10 12:11:36;;;;;;;26.17;11.93;;;7.10;50.20;;;;;;7688451;23;20013;-74
2021/01/10 12:14:37;;;;;;;23.52;10.13;;;7.10;50.10;;;;;;7715849;23;20094;-73
2021/01/10 12:17:38;;;;;;;27.52;10.50;;;7.10;50.10;;;;;;7689518;23;20099;-73
2021/01/10 12:20:39;;;;;;;19.83;9.50;;;7.10;50.10;;;;;;7690455;23;20402;-73
2021/01/10 12:23:41;;;;;;;21.77;9.82;;;7.10;50.10;;;;;;7690051;23;20017;-73
2021/01/10 12:26:42;;;;;;;30.35;9.98;;;7.10;50.00;;;;;;7689117;23;20027;-73
2021/01/10 12:29:43;;;;;;;22.23;9.80;;;7.10;49.80;;;;;;7664877;23;20328;-73
2021/01/10 12:32:44;;;;;;;23.08;10.85;;;7.20;49.60;;;;;;7688419;23;20025;-74
2021/01/10 12:35:45;;;;;;;25.88;10.45;;;7.20;49.60;;;;;;7715185;23;20107;-74
2021/01/10 12:38:46;;;;;;;33.15;11.95;;;7.20;49.60;;;;;;7689957;23;20025;-74
2021/01/10 12:41:47;;;;;;;29.75;13.35;;;7.20;49.50;;;;;;7715694;23;20020;-73
2021/01/10 12:44:49;;;;;;;24.83;10.32;;;7.10;49.40;;;;;;7689876;23;20017;-73
2021/01/10 12:47:50;;;;;;;32.00;12.80;;;7.20;49.40;;;;;;7689655;23;20031;-74
2021/01/10 12:50:51;;;;;;;27.50;12.13;;;7.20;49.40;;;;;;7715193;23;20024;-74
2021/01/10 12:53:52;;;;;;;34.90;12.20;;;7.10;49.50;;;;;;7689467;23;20020;-74
2021/01/10 12:56:53;;;;;;;26.77;10.68;;;7.10;49.50;;;;;;7689256;23;20029;-73
2021/01/10 12:59:54;;;;;;;30.98;11.65;;;7.10;49.40;;;;;;7689371;23;20016;-73
2021/01/10 13:02:55;;;;;;;26.90;11.43;;;7.10;49.50;;;;;;7650386;23;20017;-74
2021/01/10 13:05:56;;;;;;;24.92;10.27;;;7.10;49.40;;;;;;7715818;23;20320;-74
2021/01/10 13:08:57;;;;;;;23.60;11.30;;;7.10;49.40;;;;;;7688488;23;20467;-73
2021/01/10 13:11:59;;;;;;;20.80;9.27;;;7.00;49.30;;;;;;7715556;23;20018;-74
2021/01/10 13:15:00;;;;;;;24.85;10.30;;;6.90;49.10;;;;;;7688720;23;20113;-74
2021/01/10 13:18:01;;;;;;;28.40;11.60;;;6.80;49.20;;;;;;7689461;23;20095;-73
2021/01/10 13:21:06;;;;;;;26.60;10.63;;;6.80;49.40;;;;;;7689125;23;20039;-75
2021/01/10 13:24:07;;;;;;;22.15;10.75;;;6.80;49.40;;;;;;7688943;23;20047;-75
2021/01/10 13:27:08;;;;;;;31.00;11.15;;;6.80;49.50;;;;;;7689821;23;20297;-73
2021/01/10 13:30:09;;;;;;;24.25;10.52;;;6.80;49.40;;;;;;7689315;23;20108;-75
2021/01/10 13:33:10;;;;;;;22.40;9.68;;;6.80;49.50;;;;;;7689339;23;20017;-73
2021/01/10 13:36:19;;;;;;;23.92;10.02;;;6.80;49.50;;;;;;7662459;23;20021;-73
2021/01/10 13:39:20;;;;;;;26.92;11.93;;;6.80;49.50;;;;;;7652026;23;20071;-73
2021/01/10 13:42:21;;;;;;;24.38;11.18;;;6.70;49.50;;;;;;7689583;23;20017;-73
2021/01/10 13:45:24;;;;;;;31.17;11.40;;;6.70;49.50;;;;;;7703224;23;20017;-73
2021/01/10 13:48:24;;;;;;;30.17;11.63;;;6.70;49.60;;;;;;7664519;23;20008;-73
2021/01/10 13:51:27;;;;;;;31.63;13.18;;;6.70;49.60;;;;;;7638341;23;20032;-75
2021/01/10 13:54:29;;;;;;;28.73;12.15;;;6.60;49.70;;;;;;7676339;23;20032;-74
2021/01/10 13:57:30;;;;;;;24.55;10.27;;;6.50;49.70;;;;;;7688956;23;20028;-74
2021/01/10 14:00:31;;;;;;;23.70;9.27;;;6.50;49.90;;;;;;7689579;23;20017;-73
2021/01/10 14:03:31;;;;;;;26.27;10.38;;;6.50;50.00;;;;;;7690024;23;20139;-72
2021/01/10 14:06:34;;;;;;;24.55;9.88;;;6.40;50.00;;;;;;7689596;23;20017;-72
2021/01/10 14:09:35;;;;;;;24.02;9.10;;;6.40;49.90;;;;;;7703092;23;20452;-74
2021/01/10 14:12:36;;;;;;;23.67;8.98;;;6.40;50.00;;;;;;7666328;23;20009;-72
2021/01/10 14:15:37;;;;;;;20.63;8.98;;;6.40;50.00;;;;;;7719537;23;20020;-74
2021/01/10 14:18:38;;;;;;;22.88;9.30;;;6.30;50.00;;;;;;7658368;23;20020;-74
2021/01/10 14:21:39;;;;;;;21.48;9.27;;;6.40;50.20;;;;;;7648814;23;20024;-75
2021/01/10 14:24:41;;;;;;;23.60;9.88;;;6.30;50.10;;;;;;7693882;23;20016;-75
2021/01/10 14:27:42;;;;;;;29.90;9.80;;;6.30;50.10;;;;;;7681992;23;20366;-75
2021/01/10 14:30:42;;;;;;;28.77;10.98;;;6.30;50.10;;;;;;7669549;23;20017;-74
2021/01/10 14:33:43;;;;;;;25.83;9.85;;;6.30;50.10;;;;;;7632502;23;20491;-74
2021/01/10 14:36:46;;;;;;;20.73;7.85;;;6.30;50.20;;;;;;7693048;23;20104;-75
2021/01/10 14:39:47;;;;;;;24.90;10.13;;;6.40;50.30;;;;;;7654108;23;20364;-74
2021/01/10 14:42:48;;;;;;;28.40;11.55;;;6.40;50.30;;;;;;7679492;23;20384;-74
2021/01/10 14:45:49;;;;;;;27.48;10.05;;;6.40;50.30;;;;;;7689857;23;20017;-75
2021/01/10 14:48:52;;;;;;;18.38;7.63;;;6.40;50.30;;;;;;7665947;23;20020;-73
2021/01/10 14:51:53;;;;;;;24.17;10.52;;;6.30;50.30;;;;;;7691136;23;20375;-75
2021/01/10 14:54:53;;;;;;;26.77;10.40;;;6.30;50.40;;;;;;7690496;23;20028;-74
2021/01/10 14:57:54;;;;;;;28.50;10.77;;;6.20;50.50;;;;;;7690778;23;20090;-74
2021/01/10 15:00:55;;;;;;;20.52;8.80;;;6.10;50.70;;;;;;7716659;23;20431;-74
2021/01/10 15:03:58;;;;;;;29.00;10.93;;;6.10;50.90;;;;;;7665626;23;20024;-74
2021/01/10 15:06:59;;;;;;;28.02;9.88;;;6.00;50.90;;;;;;7690674;23;20095;-74
2021/01/10 15:10:01;;;;;;;23.10;9.48;;;6.00;51.10;;;;;;7689853;23;20074;-74
2021/01/10 15:13:01;;;;;;;21.02;8.73;;;5.90;51.30;;;;;;7664051;23;20060;-74
2021/01/10 15:16:03;;;;;;;30.45;9.48;;;5.90;51.40;;;;;;7690719;23;20077;-74
2021/01/10 15:19:04;;;;;;;29.55;11.13;;;5.80;51.50;;;;;;7691441;23;20285;-74
2021/01/10 15:22:05;;;;;;;23.77;9.60;;;5.80;51.60;;;;;;7691051;23;20036;-74
2021/01/10 15:25:06;;;;;;;24.25;9.93;;;5.70;51.60;;;;;;7715829;23;20347;-74
2021/01/10 15:28:07;;;;;;;20.33;8.80;;;5.70;51.80;;;;;;7665672;23;20027;-74
2021/01/10 15:31:08;;;;;;;29.00;10.60;;;5.70;51.80;;;;;;7716833;23;20016;-75
2021/01/10 15:34:09;;;;;;;19.63;8.93;;;5.70;51.80;;;;;;7717070;23;20027;-74
2021/01/10 15:37:10;;;;;;;24.65;11.13;;;5.70;51.90;;;;;;7691076;23;20012;-75
2021/01/10 15:40:12;;;;;;;24.65;10.40;;;5.70;51.90;;;;;;7690986;23;20071;-73